sensor_id;sensor_type;location;lat;lon;timestamp;P1;durP1;ratioP1;P2;durP2;ratioP2
81697;SDS011;71109;52.514;5.708;2023-07-20T00:01:34;3.55;;;2.17;;
81697;SDS011;71109;52.514;5.708;2023-07-20T00:03:59;2.63;;;2.13;;
81697;SDS011;71109;52.514;5.708;2023-07-20T00:06:25;2.17;;;1.47;;
81697;SDS011;71109;52.514;5.708;2023-07-20T00:08:52;3.67;;;2.17;;
81697;SDS011;71109;52.514;5.708;2023-07-20T00:11:18;8.90;;;2.45;;
81697;SDS011;71109;52.514;5.708;2023-07-20T00:13:44;3.28;;;2.35;;
81697;SDS011;71109;52.514;5.708;2023-07-20T00:16:09;4.43;;;3.28;;
81697;SDS011;71109;52.514;5.708;2023-07-20T00:18:35;5.53;;;2.85;;
81697;SDS011;71109;52.514;5.708;2023-07-20T00:21:00;5.10;;;3.50;;
81697;SDS011;71109;52.514;5.708;2023-07-20T00:23:26;6.00;;;3.00;;
81697;SDS011;71109;52.514;5.708;2023-07-20T00:25:52;3.75;;;2.60;;
81697;SDS011;71109;52.514;5.708;2023-07-20T00:28:17;4.88;;;2.22;;
81697;SDS011;71109;52.514;5.708;2023-07-20T00:30:42;2.60;;;2.40;;
81697;SDS011;71109;52.514;5.708;2023-07-20T00:33:11;3.37;;;2.23;;
81697;SDS011;71109;52.514;5.708;2023-07-20T00:35:37;3.03;;;2.55;;
81697;SDS011;71109;52.514;5.708;2023-07-20T00:38:05;5.05;;;2.40;;
81697;SDS011;71109;52.514;5.708;2023-07-20T00:40:37;2.38;;;1.90;;
81697;SDS011;71109;52.514;5.708;2023-07-20T00:43:03;2.53;;;1.67;;
81697;SDS011;71109;52.514;5.708;2023-07-20T00:45:28;3.83;;;1.95;;
81697;SDS011;71109;52.514;5.708;2023-07-20T00:47:54;1.92;;;1.70;;
81697;SDS011;71109;52.514;5.708;2023-07-20T00:50:19;3.45;;;2.38;;
81697;SDS011;71109;52.514;5.708;2023-07-20T00:52:45;2.25;;;2.00;;
81697;SDS011;71109;52.514;5.708;2023-07-20T00:55:10;2.15;;;1.90;;
81697;SDS011;71109;52.514;5.708;2023-07-20T00:57:36;3.72;;;1.77;;
81697;SDS011;71109;52.514;5.708;2023-07-20T01:00:01;2.72;;;1.95;;
81697;SDS011;71109;52.514;5.708;2023-07-20T01:02:27;3.88;;;2.38;;
81697;SDS011;71109;52.514;5.708;2023-07-20T01:04:52;2.60;;;1.90;;
81697;SDS011;71109;52.514;5.708;2023-07-20T01:12:29;3.83;;;2.83;;
81697;SDS011;71109;52.514;5.708;2023-07-20T01:15:15;3.67;;;2.55;;
81697;SDS011;71109;52.514;5.708;2023-07-20T01:17:41;3.17;;;2.50;;
81697;SDS011;71109;52.514;5.708;2023-07-20T01:20:06;3.20;;;2.10;;
81697;SDS011;71109;52.514;5.708;2023-07-20T01:22:38;3.53;;;2.70;;
81697;SDS011;71109;52.514;5.708;2023-07-20T01:33:21;4.10;;;2.70;;
81697;SDS011;71109;52.514;5.708;2023-07-20T01:35:50;3.85;;;2.35;;
81697;SDS011;71109;52.514;5.708;2023-07-20T01:38:18;4.90;;;3.00;;
81697;SDS011;71109;52.514;5.708;2023-07-20T01:40:44;3.25;;;2.35;;
81697;SDS011;71109;52.514;5.708;2023-07-20T01:43:10;3.00;;;2.10;;
81697;SDS011;71109;52.514;5.708;2023-07-20T01:45:35;7.28;;;3.00;;
81697;SDS011;71109;52.514;5.708;2023-07-20T01:48:00;5.28;;;2.80;;
81697;SDS011;71109;52.514;5.708;2023-07-20T01:50:26;4.35;;;1.90;;
81697;SDS011;71109;52.514;5.708;2023-07-20T01:52:51;4.35;;;2.28;;
81697;SDS011;71109;52.514;5.708;2023-07-20T01:55:17;4.07;;;2.55;;
81697;SDS011;71109;52.514;5.708;2023-07-20T01:57:42;5.20;;;2.60;;
81697;SDS011;71109;52.514;5.708;2023-07-20T02:00:07;3.85;;;2.85;;
81697;SDS011;71109;52.514;5.708;2023-07-20T02:02:34;5.63;;;2.92;;
81697;SDS011;71109;52.514;5.708;2023-07-20T02:05:00;4.07;;;2.60;;
81697;SDS011;71109;52.514;5.708;2023-07-20T02:07:25;6.10;;;2.80;;
81697;SDS011;71109;52.514;5.708;2023-07-20T02:09:51;6.93;;;2.85;;
81697;SDS011;71109;52.514;5.708;2023-07-20T02:12:16;3.95;;;2.92;;
81697;SDS011;71109;52.514;5.708;2023-07-20T02:14:41;5.90;;;2.83;;
81697;SDS011;71109;52.514;5.708;2023-07-20T02:17:07;5.07;;;3.17;;
81697;SDS011;71109;52.514;5.708;2023-07-20T02:19:34;5.45;;;2.90;;
81697;SDS011;71109;52.514;5.708;2023-07-20T02:21:59;6.22;;;3.45;;
81697;SDS011;71109;52.514;5.708;2023-07-20T02:24:25;5.03;;;2.88;;
81697;SDS011;71109;52.514;5.708;2023-07-20T02:26:50;4.68;;;3.45;;
81697;SDS011;71109;52.514;5.708;2023-07-20T02:29:16;14.70;;;3.70;;
81697;SDS011;71109;52.514;5.708;2023-07-20T02:31:41;4.17;;;3.67;;
81697;SDS011;71109;52.514;5.708;2023-07-20T02:34:08;5.45;;;2.83;;
81697;SDS011;71109;52.514;5.708;2023-07-20T02:36:34;3.50;;;2.85;;
81697;SDS011;71109;52.514;5.708;2023-07-20T02:39:00;5.57;;;3.85;;
81697;SDS011;71109;52.514;5.708;2023-07-20T02:41:27;8.40;;;4.15;;
81697;SDS011;71109;52.514;5.708;2023-07-20T02:43:52;9.00;;;4.00;;
81697;SDS011;71109;52.514;5.708;2023-07-20T02:46:17;10.83;;;3.63;;
81697;SDS011;71109;52.514;5.708;2023-07-20T02:48:43;5.37;;;3.53;;
81697;SDS011;71109;52.514;5.708;2023-07-20T02:51:08;6.43;;;3.70;;
81697;SDS011;71109;52.514;5.708;2023-07-20T02:53:34;6.45;;;4.18;;
81697;SDS011;71109;52.514;5.708;2023-07-20T02:55:59;4.72;;;3.42;;
81697;SDS011;71109;52.514;5.708;2023-07-20T02:58:25;4.93;;;4.00;;
81697;SDS011;71109;52.514;5.708;2023-07-20T03:00:50;5.38;;;3.67;;
81697;SDS011;71109;52.514;5.708;2023-07-20T03:03:15;4.55;;;3.65;;
81697;SDS011;71109;52.514;5.708;2023-07-20T03:05:41;7.90;;;4.18;;
81697;SDS011;71109;52.514;5.708;2023-07-20T03:08:07;7.20;;;4.10;;
81697;SDS011;71109;52.514;5.708;2023-07-20T03:10:32;5.80;;;3.65;;
81697;SDS011;71109;52.514;5.708;2023-07-20T03:12:58;20.15;;;4.25;;
81697;SDS011;71109;52.514;5.708;2023-07-20T03:15:23;4.80;;;3.42;;
81697;SDS011;71109;52.514;5.708;2023-07-20T03:17:49;5.68;;;3.85;;
81697;SDS011;71109;52.514;5.708;2023-07-20T03:20:15;5.97;;;3.83;;
81697;SDS011;71109;52.514;5.708;2023-07-20T03:22:40;4.30;;;3.38;;
81697;SDS011;71109;52.514;5.708;2023-07-20T03:25:06;6.55;;;3.90;;
81697;SDS011;71109;52.514;5.708;2023-07-20T03:27:32;5.82;;;4.28;;
81697;SDS011;71109;52.514;5.708;2023-07-20T03:29:57;5.85;;;4.05;;
81697;SDS011;71109;52.514;5.708;2023-07-20T03:32:22;5.10;;;3.60;;
81697;SDS011;71109;52.514;5.708;2023-07-20T03:34:48;6.25;;;4.22;;
81697;SDS011;71109;52.514;5.708;2023-07-20T03:37:13;7.20;;;4.13;;
81697;SDS011;71109;52.514;5.708;2023-07-20T03:39:39;6.78;;;4.15;;
81697;SDS011;71109;52.514;5.708;2023-07-20T03:42:04;6.80;;;4.70;;
81697;SDS011;71109;52.514;5.708;2023-07-20T03:44:31;7.53;;;5.07;;
81697;SDS011;71109;52.514;5.708;2023-07-20T03:46:56;7.33;;;5.07;;
81697;SDS011;71109;52.514;5.708;2023-07-20T03:49:21;7.18;;;5.20;;
81697;SDS011;71109;52.514;5.708;2023-07-20T03:51:47;7.97;;;4.73;;
81697;SDS011;71109;52.514;5.708;2023-07-20T03:54:12;9.63;;;4.70;;
81697;SDS011;71109;52.514;5.708;2023-07-20T03:56:37;8.93;;;5.10;;
81697;SDS011;71109;52.514;5.708;2023-07-20T03:59:03;9.35;;;4.97;;
81697;SDS011;71109;52.514;5.708;2023-07-20T04:01:28;6.45;;;4.75;;
81697;SDS011;71109;52.514;5.708;2023-07-20T04:03:54;10.43;;;5.20;;
81697;SDS011;71109;52.514;5.708;2023-07-20T04:06:19;8.05;;;5.05;;
81697;SDS011;71109;52.514;5.708;2023-07-20T04:08:44;8.30;;;5.10;;
81697;SDS011;71109;52.514;5.708;2023-07-20T04:11:12;6.25;;;4.57;;
81697;SDS011;71109;52.514;5.708;2023-07-20T04:13:37;12.98;;;5.78;;
81697;SDS011;71109;52.514;5.708;2023-07-20T04:16:03;7.00;;;5.10;;
81697;SDS011;71109;52.514;5.708;2023-07-20T04:18:28;12.27;;;5.55;;
81697;SDS011;71109;52.514;5.708;2023-07-20T04:20:54;6.67;;;4.97;;
81697;SDS011;71109;52.514;5.708;2023-07-20T04:23:19;7.05;;;5.00;;
81697;SDS011;71109;52.514;5.708;2023-07-20T04:25:44;9.37;;;5.83;;
81697;SDS011;71109;52.514;5.708;2023-07-20T04:28:10;7.53;;;4.95;;
81697;SDS011;71109;52.514;5.708;2023-07-20T04:30:35;7.63;;;4.60;;
81697;SDS011;71109;52.514;5.708;2023-07-20T04:33:02;7.65;;;5.40;;
81697;SDS011;71109;52.514;5.708;2023-07-20T04:38:18;9.55;;;5.05;;
81697;SDS011;71109;52.514;5.708;2023-07-20T04:40:45;6.68;;;4.70;;
81697;SDS011;71109;52.514;5.708;2023-07-20T04:43:12;7.47;;;5.00;;
81697;SDS011;71109;52.514;5.708;2023-07-20T04:45:38;8.70;;;4.65;;
81697;SDS011;71109;52.514;5.708;2023-07-20T04:48:05;7.13;;;4.23;;
81697;SDS011;71109;52.514;5.708;2023-07-20T04:50:41;9.45;;;4.45;;
81697;SDS011;71109;52.514;5.708;2023-07-20T04:53:08;7.10;;;5.22;;
81697;SDS011;71109;52.514;5.708;2023-07-20T04:55:35;7.25;;;4.57;;
81697;SDS011;71109;52.514;5.708;2023-07-20T04:58:02;8.55;;;5.38;;
81697;SDS011;71109;52.514;5.708;2023-07-20T05:00:28;9.18;;;5.13;;
81697;SDS011;71109;52.514;5.708;2023-07-20T05:03:03;6.88;;;4.72;;
81697;SDS011;71109;52.514;5.708;2023-07-20T05:05:30;10.25;;;5.15;;
81697;SDS011;71109;52.514;5.708;2023-07-20T05:07:55;8.15;;;5.30;;
81697;SDS011;71109;52.514;5.708;2023-07-20T05:10:21;11.50;;;4.90;;
81697;SDS011;71109;52.514;5.708;2023-07-20T05:12:46;5.53;;;3.25;;
81697;SDS011;71109;52.514;5.708;2023-07-20T05:15:11;5.88;;;3.28;;
81697;SDS011;71109;52.514;5.708;2023-07-20T05:17:37;6.90;;;4.60;;
81697;SDS011;71109;52.514;5.708;2023-07-20T05:20:02;10.98;;;4.55;;
81697;SDS011;71109;52.514;5.708;2023-07-20T05:22:29;6.90;;;4.07;;
81697;SDS011;71109;52.514;5.708;2023-07-20T05:24:54;6.73;;;4.37;;
81697;SDS011;71109;52.514;5.708;2023-07-20T05:27:20;6.40;;;4.38;;
81697;SDS011;71109;52.514;5.708;2023-07-20T05:29:46;6.70;;;4.95;;
81697;SDS011;71109;52.514;5.708;2023-07-20T05:32:14;8.18;;;6.63;;
81697;SDS011;71109;52.514;5.708;2023-07-20T05:34:40;16.05;;;8.35;;
81697;SDS011;71109;52.514;5.708;2023-07-20T05:37:05;11.00;;;8.05;;
81697;SDS011;71109;52.514;5.708;2023-07-20T05:39:34;10.18;;;7.60;;
81697;SDS011;71109;52.514;5.708;2023-07-20T05:41:59;7.30;;;5.15;;
81697;SDS011;71109;52.514;5.708;2023-07-20T05:44:25;7.28;;;5.47;;
81697;SDS011;71109;52.514;5.708;2023-07-20T05:46:50;9.23;;;5.53;;
81697;SDS011;71109;52.514;5.708;2023-07-20T05:49:15;7.43;;;4.85;;
81697;SDS011;71109;52.514;5.708;2023-07-20T05:51:41;8.88;;;4.85;;
81697;SDS011;71109;52.514;5.708;2023-07-20T05:54:06;6.47;;;4.57;;
81697;SDS011;71109;52.514;5.708;2023-07-20T05:56:32;10.07;;;4.50;;
81697;SDS011;71109;52.514;5.708;2023-07-20T05:58:57;8.77;;;5.35;;
81697;SDS011;71109;52.514;5.708;2023-07-20T06:01:22;8.60;;;5.85;;
81697;SDS011;71109;52.514;5.708;2023-07-20T06:03:48;6.45;;;4.15;;
81697;SDS011;71109;52.514;5.708;2023-07-20T06:06:13;7.37;;;5.10;;
81697;SDS011;71109;52.514;5.708;2023-07-20T06:08:40;6.20;;;4.43;;
81697;SDS011;71109;52.514;5.708;2023-07-20T06:11:05;11.48;;;4.97;;
81697;SDS011;71109;52.514;5.708;2023-07-20T06:13:30;7.63;;;3.90;;
81697;SDS011;71109;52.514;5.708;2023-07-20T06:15:56;8.98;;;4.47;;
81697;SDS011;71109;52.514;5.708;2023-07-20T06:18:24;6.53;;;4.13;;
81697;SDS011;71109;52.514;5.708;2023-07-20T06:20:50;6.05;;;4.15;;
81697;SDS011;71109;52.514;5.708;2023-07-20T06:23:16;7.40;;;5.03;;
81697;SDS011;71109;52.514;5.708;2023-07-20T06:25:42;7.50;;;4.97;;
81697;SDS011;71109;52.514;5.708;2023-07-20T06:28:07;5.75;;;4.30;;
81697;SDS011;71109;52.514;5.708;2023-07-20T06:30:33;9.00;;;4.50;;
81697;SDS011;71109;52.514;5.708;2023-07-20T06:32:59;4.85;;;3.42;;
81697;SDS011;71109;52.514;5.708;2023-07-20T06:35:25;6.78;;;3.50;;
81697;SDS011;71109;52.514;5.708;2023-07-20T06:37:51;3.90;;;3.28;;
81697;SDS011;71109;52.514;5.708;2023-07-20T06:40:16;7.65;;;2.92;;
81697;SDS011;71109;52.514;5.708;2023-07-20T06:42:42;4.53;;;3.33;;
81697;SDS011;71109;52.514;5.708;2023-07-20T06:45:07;5.70;;;3.15;;
81697;SDS011;71109;52.514;5.708;2023-07-20T06:47:33;8.68;;;2.78;;
81697;SDS011;71109;52.514;5.708;2023-07-20T06:49:59;5.35;;;2.72;;
81697;SDS011;71109;52.514;5.708;2023-07-20T06:52:24;5.40;;;2.67;;
81697;SDS011;71109;52.514;5.708;2023-07-20T06:54:50;4.15;;;2.33;;
81697;SDS011;71109;52.514;5.708;2023-07-20T06:57:15;2.78;;;1.90;;
81697;SDS011;71109;52.514;5.708;2023-07-20T06:59:40;3.95;;;1.80;;
81697;SDS011;71109;52.514;5.708;2023-07-20T07:02:06;5.90;;;2.03;;
81697;SDS011;71109;52.514;5.708;2023-07-20T07:04:31;4.60;;;1.92;;
81697;SDS011;71109;52.514;5.708;2023-07-20T07:06:57;3.55;;;1.60;;
81697;SDS011;71109;52.514;5.708;2023-07-20T07:09:22;5.00;;;1.52;;
81697;SDS011;71109;52.514;5.708;2023-07-20T07:11:47;1.02;;;0.75;;
81697;SDS011;71109;52.514;5.708;2023-07-20T07:14:13;4.22;;;0.90;;
81697;SDS011;71109;52.514;5.708;2023-07-20T07:16:38;2.45;;;0.80;;
81697;SDS011;71109;52.514;5.708;2023-07-20T07:19:04;3.03;;;0.98;;
81697;SDS011;71109;52.514;5.708;2023-07-20T07:21:30;1.98;;;0.80;;
81697;SDS011;71109;52.514;5.708;2023-07-20T07:23:56;1.33;;;1.00;;
81697;SDS011;71109;52.514;5.708;2023-07-20T07:26:22;1.58;;;1.17;;
81697;SDS011;71109;52.514;5.708;2023-07-20T07:28:48;1.98;;;0.80;;
81697;SDS011;71109;52.514;5.708;2023-07-20T07:31:14;1.55;;;1.10;;
81697;SDS011;71109;52.514;5.708;2023-07-20T07:33:39;0.60;;;0.60;;
81697;SDS011;71109;52.514;5.708;2023-07-20T07:36:05;4.40;;;1.33;;
81697;SDS011;71109;52.514;5.708;2023-07-20T07:38:31;0.90;;;0.90;;
81697;SDS011;71109;52.514;5.708;2023-07-20T07:40:57;2.70;;;1.33;;
81697;SDS011;71109;52.514;5.708;2023-07-20T07:43:23;5.95;;;1.10;;
81697;SDS011;71109;52.514;5.708;2023-07-20T07:45:48;6.60;;;1.45;;
81697;SDS011;71109;52.514;5.708;2023-07-20T07:48:14;1.08;;;1.00;;
81697;SDS011;71109;52.514;5.708;2023-07-20T07:50:42;5.30;;;1.33;;
81697;SDS011;71109;52.514;5.708;2023-07-20T07:53:07;2.58;;;1.10;;
81697;SDS011;71109;52.514;5.708;2023-07-20T07:55:33;1.20;;;1.08;;
81697;SDS011;71109;52.514;5.708;2023-07-20T07:58:00;2.15;;;1.50;;
81697;SDS011;71109;52.514;5.708;2023-07-20T08:00:25;2.45;;;1.50;;
81697;SDS011;71109;52.514;5.708;2023-07-20T08:02:51;6.85;;;1.30;;
81697;SDS011;71109;52.514;5.708;2023-07-20T08:05:16;0.95;;;0.80;;
81697;SDS011;71109;52.514;5.708;2023-07-20T08:07:42;1.80;;;0.90;;
81697;SDS011;71109;52.514;5.708;2023-07-20T08:10:08;2.38;;;0.80;;
81697;SDS011;71109;52.514;5.708;2023-07-20T08:12:34;1.67;;;1.05;;
81697;SDS011;71109;52.514;5.708;2023-07-20T08:14:59;7.43;;;1.83;;
81697;SDS011;71109;52.514;5.708;2023-07-20T08:17:24;0.80;;;0.80;;
81697;SDS011;71109;52.514;5.708;2023-07-20T08:19:50;0.70;;;0.70;;
81697;SDS011;71109;52.514;5.708;2023-07-20T08:22:16;1.02;;;0.70;;
81697;SDS011;71109;52.514;5.708;2023-07-20T08:24:42;1.70;;;1.27;;
81697;SDS011;71109;52.514;5.708;2023-07-20T08:27:08;2.83;;;0.85;;
81697;SDS011;71109;52.514;5.708;2023-07-20T08:29:34;3.17;;;0.80;;
81697;SDS011;71109;52.514;5.708;2023-07-20T08:32:00;1.55;;;0.80;;
81697;SDS011;71109;52.514;5.708;2023-07-20T08:34:26;1.30;;;1.00;;
81697;SDS011;71109;52.514;5.708;2023-07-20T08:36:52;1.33;;;0.98;;
81697;SDS011;71109;52.514;5.708;2023-07-20T08:39:17;0.70;;;0.70;;
81697;SDS011;71109;52.514;5.708;2023-07-20T08:41:43;1.17;;;0.70;;
81697;SDS011;71109;52.514;5.708;2023-07-20T08:44:08;1.45;;;0.90;;
81697;SDS011;71109;52.514;5.708;2023-07-20T08:46:35;7.35;;;1.00;;
81697;SDS011;71109;52.514;5.708;2023-07-20T08:49:03;3.63;;;0.70;;
81697;SDS011;71109;52.514;5.708;2023-07-20T08:51:29;0.77;;;0.77;;
81697;SDS011;71109;52.514;5.708;2023-07-20T08:53:55;1.15;;;1.00;;
81697;SDS011;71109;52.514;5.708;2023-07-20T08:56:21;3.10;;;0.80;;
81697;SDS011;71109;52.514;5.708;2023-07-20T08:58:49;1.48;;;1.00;;
81697;SDS011;71109;52.514;5.708;2023-07-20T09:01:14;0.80;;;0.70;;
81697;SDS011;71109;52.514;5.708;2023-07-20T09:03:40;6.97;;;0.95;;
81697;SDS011;71109;52.514;5.708;2023-07-20T09:06:08;2.25;;;0.90;;
81697;SDS011;71109;52.514;5.708;2023-07-20T09:08:33;3.80;;;0.63;;
81697;SDS011;71109;52.514;5.708;2023-07-20T09:11:03;4.35;;;1.13;;
81697;SDS011;71109;52.514;5.708;2023-07-20T09:13:29;0.85;;;0.73;;
81697;SDS011;71109;52.514;5.708;2023-07-20T09:15:54;1.25;;;0.60;;
81697;SDS011;71109;52.514;5.708;2023-07-20T09:18:24;1.63;;;1.05;;
81697;SDS011;71109;52.514;5.708;2023-07-20T09:20:50;0.80;;;0.70;;
81697;SDS011;71109;52.514;5.708;2023-07-20T09:23:18;3.38;;;0.82;;
81697;SDS011;71109;52.514;5.708;2023-07-20T09:25:43;8.70;;;1.60;;
81697;SDS011;71109;52.514;5.708;2023-07-20T09:28:10;5.07;;;0.90;;
81697;SDS011;71109;52.514;5.708;2023-07-20T09:30:36;3.15;;;1.23;;
81697;SDS011;71109;52.514;5.708;2023-07-20T09:33:01;1.50;;;1.10;;
81697;SDS011;71109;52.514;5.708;2023-07-20T09:35:27;4.07;;;1.27;;
81697;SDS011;71109;52.514;5.708;2023-07-20T09:37:57;1.15;;;1.00;;
81697;SDS011;71109;52.514;5.708;2023-07-20T09:40:24;1.38;;;0.80;;
81697;SDS011;71109;52.514;5.708;2023-07-20T09:42:51;1.75;;;1.20;;
81697;SDS011;71109;52.514;5.708;2023-07-20T09:45:17;2.22;;;0.93;;
81697;SDS011;71109;52.514;5.708;2023-07-20T09:47:43;0.50;;;0.50;;
81697;SDS011;71109;52.514;5.708;2023-07-20T09:50:08;3.58;;;1.48;;
81697;SDS011;71109;52.514;5.708;2023-07-20T09:52:35;1.88;;;0.90;;
81697;SDS011;71109;52.514;5.708;2023-07-20T09:55:03;2.10;;;1.50;;
81697;SDS011;71109;52.514;5.708;2023-07-20T09:57:28;2.08;;;0.90;;
81697;SDS011;71109;52.514;5.708;2023-07-20T09:59:54;2.38;;;1.30;;
81697;SDS011;71109;52.514;5.708;2023-07-20T10:02:20;2.13;;;1.08;;
81697;SDS011;71109;52.514;5.708;2023-07-20T10:04:47;4.55;;;1.40;;
81697;SDS011;71109;52.514;5.708;2023-07-20T10:07:14;2.50;;;1.83;;
81697;SDS011;71109;52.514;5.708;2023-07-20T10:09:40;1.27;;;1.17;;
81697;SDS011;71109;52.514;5.708;2023-07-20T10:12:07;2.05;;;1.25;;
81697;SDS011;71109;52.514;5.708;2023-07-20T10:14:34;2.40;;;1.40;;
81697;SDS011;71109;52.514;5.708;2023-07-20T10:17:01;2.35;;;1.48;;
81697;SDS011;71109;52.514;5.708;2023-07-20T10:22:14;4.47;;;1.50;;
81697;SDS011;71109;52.514;5.708;2023-07-20T10:24:44;1.20;;;1.10;;
81697;SDS011;71109;52.514;5.708;2023-07-20T10:27:10;2.17;;;1.30;;
81697;SDS011;71109;52.514;5.708;2023-07-20T10:29:35;3.63;;;1.35;;
81697;SDS011;71109;52.514;5.708;2023-07-20T10:32:02;1.13;;;1.02;;
81697;SDS011;71109;52.514;5.708;2023-07-20T10:34:27;1.55;;;1.02;;
81697;SDS011;71109;52.514;5.708;2023-07-20T10:36:53;2.45;;;1.15;;
81697;SDS011;71109;52.514;5.708;2023-07-20T10:39:26;1.55;;;1.27;;
81697;SDS011;71109;52.514;5.708;2023-07-20T10:42:02;2.58;;;1.40;;
81697;SDS011;71109;52.514;5.708;2023-07-20T10:44:37;1.30;;;1.02;;
81697;SDS011;71109;52.514;5.708;2023-07-20T10:47:03;1.38;;;1.00;;
81697;SDS011;71109;52.514;5.708;2023-07-20T10:49:34;2.30;;;0.70;;
81697;SDS011;71109;52.514;5.708;2023-07-20T10:52:00;3.58;;;1.13;;
81697;SDS011;71109;52.514;5.708;2023-07-20T10:56:55;2.63;;;0.65;;
81697;SDS011;71109;52.514;5.708;2023-07-20T11:01:56;0.73;;;0.73;;
81697;SDS011;71109;52.514;5.708;2023-07-20T11:04:40;1.40;;;0.88;;
81697;SDS011;71109;52.514;5.708;2023-07-20T11:07:06;3.83;;;0.90;;
81697;SDS011;71109;52.514;5.708;2023-07-20T11:09:36;3.92;;;0.90;;
81697;SDS011;71109;52.514;5.708;2023-07-20T11:12:09;0.52;;;0.52;;
81697;SDS011;71109;52.514;5.708;2023-07-20T11:14:42;1.10;;;0.60;;
81697;SDS011;71109;52.514;5.708;2023-07-20T11:17:21;0.50;;;0.50;;
81697;SDS011;71109;52.514;5.708;2023-07-20T11:19:58;3.03;;;1.23;;
81697;SDS011;71109;52.514;5.708;2023-07-20T11:22:25;1.23;;;0.90;;
81697;SDS011;71109;52.514;5.708;2023-07-20T11:24:54;0.90;;;0.77;;
81697;SDS011;71109;52.514;5.708;2023-07-20T11:27:20;0.90;;;0.60;;
81697;SDS011;71109;52.514;5.708;2023-07-20T11:29:47;1.05;;;0.80;;
81697;SDS011;71109;52.514;5.708;2023-07-20T11:32:19;3.70;;;0.70;;
81697;SDS011;71109;52.514;5.708;2023-07-20T11:34:46;1.05;;;0.85;;
81697;SDS011;71109;52.514;5.708;2023-07-20T11:37:12;1.15;;;0.63;;
81697;SDS011;71109;52.514;5.708;2023-07-20T11:39:38;1.08;;;0.70;;
81697;SDS011;71109;52.514;5.708;2023-07-20T11:42:03;2.05;;;0.73;;
81697;SDS011;71109;52.514;5.708;2023-07-20T11:44:30;2.80;;;0.60;;
81697;SDS011;71109;52.514;5.708;2023-07-20T11:47:08;0.93;;;0.53;;
81697;SDS011;71109;52.514;5.708;2023-07-20T11:49:36;0.50;;;0.50;;
81697;SDS011;71109;52.514;5.708;2023-07-20T11:52:08;3.80;;;0.80;;
81697;SDS011;71109;52.514;5.708;2023-07-20T11:54:35;0.88;;;0.65;;
81697;SDS011;71109;52.514;5.708;2023-07-20T11:57:04;0.70;;;0.50;;
81697;SDS011;71109;52.514;5.708;2023-07-20T11:59:30;0.82;;;0.60;;
81697;SDS011;71109;52.514;5.708;2023-07-20T12:01:56;3.10;;;0.60;;
81697;SDS011;71109;52.514;5.708;2023-07-20T12:04:22;0.35;;;0.35;;
81697;SDS011;71109;52.514;5.708;2023-07-20T12:06:48;0.52;;;0.52;;
81697;SDS011;71109;52.514;5.708;2023-07-20T12:09:14;1.70;;;0.40;;
81697;SDS011;71109;52.514;5.708;2023-07-20T12:11:42;0.95;;;0.43;;
81697;SDS011;71109;52.514;5.708;2023-07-20T12:14:09;2.33;;;0.73;;
81697;SDS011;71109;52.514;5.708;2023-07-20T12:16:35;0.98;;;0.63;;
81697;SDS011;71109;52.514;5.708;2023-07-20T12:21:27;0.65;;;0.63;;
81697;SDS011;71109;52.514;5.708;2023-07-20T12:23:52;1.90;;;0.70;;
81697;SDS011;71109;52.514;5.708;2023-07-20T12:26:18;1.13;;;0.47;;
81697;SDS011;71109;52.514;5.708;2023-07-20T12:28:47;0.28;;;0.28;;
81697;SDS011;71109;52.514;5.708;2023-07-20T12:31:12;1.10;;;0.88;;
81697;SDS011;71109;52.514;5.708;2023-07-20T12:33:38;0.95;;;0.80;;
81697;SDS011;71109;52.514;5.708;2023-07-20T12:36:04;0.95;;;0.88;;
81697;SDS011;71109;52.514;5.708;2023-07-20T12:38:30;0.68;;;0.50;;
81697;SDS011;71109;52.514;5.708;2023-07-20T12:40:58;0.73;;;0.73;;
81697;SDS011;71109;52.514;5.708;2023-07-20T12:43:25;1.63;;;0.95;;
81697;SDS011;71109;52.514;5.708;2023-07-20T12:45:50;1.75;;;0.93;;
81697;SDS011;71109;52.514;5.708;2023-07-20T12:48:16;2.43;;;1.03;;
81697;SDS011;71109;52.514;5.708;2023-07-20T12:50:41;1.23;;;0.90;;
81697;SDS011;71109;52.514;5.708;2023-07-20T12:53:07;1.30;;;0.77;;
81697;SDS011;71109;52.514;5.708;2023-07-20T12:55:32;1.02;;;0.63;;
81697;SDS011;71109;52.514;5.708;2023-07-20T12:57:58;1.20;;;0.80;;
81697;SDS011;71109;52.514;5.708;2023-07-20T13:00:23;2.63;;;0.52;;
81697;SDS011;71109;52.514;5.708;2023-07-20T13:02:49;3.07;;;1.07;;
81697;SDS011;71109;52.514;5.708;2023-07-20T13:05:14;1.77;;;1.10;;
81697;SDS011;71109;52.514;5.708;2023-07-20T13:07:40;1.70;;;1.38;;
81697;SDS011;71109;52.514;5.708;2023-07-20T13:10:06;3.13;;;1.10;;
81697;SDS011;71109;52.514;5.708;2023-07-20T13:12:33;1.70;;;1.20;;
81697;SDS011;71109;52.514;5.708;2023-07-20T13:15:00;0.95;;;0.90;;
81697;SDS011;71109;52.514;5.708;2023-07-20T13:17:27;1.33;;;1.00;;
81697;SDS011;71109;52.514;5.708;2023-07-20T13:19:53;2.10;;;1.00;;
81697;SDS011;71109;52.514;5.708;2023-07-20T13:22:18;1.27;;;0.93;;
81697;SDS011;71109;52.514;5.708;2023-07-20T13:24:44;1.98;;;1.05;;
81697;SDS011;71109;52.514;5.708;2023-07-20T13:27:14;1.20;;;1.10;;
81697;SDS011;71109;52.514;5.708;2023-07-20T13:29:40;2.53;;;1.15;;
81697;SDS011;71109;52.514;5.708;2023-07-20T13:32:05;1.98;;;1.17;;
81697;SDS011;71109;52.514;5.708;2023-07-20T13:34:32;0.90;;;0.90;;
81697;SDS011;71109;52.514;5.708;2023-07-20T13:36:57;1.67;;;1.00;;
81697;SDS011;71109;52.514;5.708;2023-07-20T13:39:22;2.75;;;1.20;;
81697;SDS011;71109;52.514;5.708;2023-07-20T13:41:49;1.10;;;1.00;;
81697;SDS011;71109;52.514;5.708;2023-07-20T13:44:15;2.05;;;1.50;;
81697;SDS011;71109;52.514;5.708;2023-07-20T13:46:40;1.40;;;1.23;;
81697;SDS011;71109;52.514;5.708;2023-07-20T13:49:05;2.97;;;1.20;;
81697;SDS011;71109;52.514;5.708;2023-07-20T13:51:31;4.30;;;1.60;;
81697;SDS011;71109;52.514;5.708;2023-07-20T13:53:56;3.65;;;1.08;;
81697;SDS011;71109;52.514;5.708;2023-07-20T13:56:22;2.30;;;1.15;;
81697;SDS011;71109;52.514;5.708;2023-07-20T13:58:49;1.92;;;1.05;;
81697;SDS011;71109;52.514;5.708;2023-07-20T14:01:15;1.20;;;1.10;;
81697;SDS011;71109;52.514;5.708;2023-07-20T14:03:41;2.03;;;1.00;;
81697;SDS011;71109;52.514;5.708;2023-07-20T14:06:06;2.03;;;1.00;;
81697;SDS011;71109;52.514;5.708;2023-07-20T14:08:32;1.30;;;0.90;;
81697;SDS011;71109;52.514;5.708;2023-07-20T14:10:57;1.67;;;0.70;;
81697;SDS011;71109;52.514;5.708;2023-07-20T14:13:23;0.98;;;0.77;;
81697;SDS011;71109;52.514;5.708;2023-07-20T14:15:48;2.35;;;0.70;;
81697;SDS011;71109;52.514;5.708;2023-07-20T14:18:15;1.02;;;0.90;;
81697;SDS011;71109;52.514;5.708;2023-07-20T14:20:40;3.30;;;1.00;;
81697;SDS011;71109;52.514;5.708;2023-07-20T14:23:06;1.75;;;0.73;;
81697;SDS011;71109;52.514;5.708;2023-07-20T14:25:31;2.88;;;1.15;;
81697;SDS011;71109;52.514;5.708;2023-07-20T14:27:58;1.20;;;0.80;;
81697;SDS011;71109;52.514;5.708;2023-07-20T14:30:24;3.00;;;1.20;;
81697;SDS011;71109;52.514;5.708;2023-07-20T14:32:49;1.75;;;1.20;;
81697;SDS011;71109;52.514;5.708;2023-07-20T14:35:15;0.70;;;0.68;;
81697;SDS011;71109;52.514;5.708;2023-07-20T14:37:40;2.70;;;0.77;;
81697;SDS011;71109;52.514;5.708;2023-07-20T14:40:05;1.10;;;0.98;;
81697;SDS011;71109;52.514;5.708;2023-07-20T14:42:32;0.80;;;0.80;;
81697;SDS011;71109;52.514;5.708;2023-07-20T14:44:57;1.35;;;1.08;;
81697;SDS011;71109;52.514;5.708;2023-07-20T14:47:23;3.30;;;1.80;;
81697;SDS011;71109;52.514;5.708;2023-07-20T14:49:48;3.50;;;0.80;;
81697;SDS011;71109;52.514;5.708;2023-07-20T14:52:14;1.55;;;0.75;;
81697;SDS011;71109;52.514;5.708;2023-07-20T14:54:39;0.73;;;0.60;;
81697;SDS011;71109;52.514;5.708;2023-07-20T14:57:05;4.45;;;1.20;;
81697;SDS011;71109;52.514;5.708;2023-07-20T14:59:32;0.70;;;0.70;;
81697;SDS011;71109;52.514;5.708;2023-07-20T15:01:57;5.93;;;1.20;;
81697;SDS011;71109;52.514;5.708;2023-07-20T15:04:23;2.20;;;0.88;;
81697;SDS011;71109;52.514;5.708;2023-07-20T15:06:48;2.40;;;0.85;;
81697;SDS011;71109;52.514;5.708;2023-07-20T15:09:13;2.63;;;1.02;;